sensor_id;sensor_type;location;lat;lon;timestamp;temperature;humidity
23137;DHT22;11737;50.558;7.258;2023-03-14T00:02:54;13.50;99.90
23137;DHT22;11737;50.558;7.258;2023-03-14T00:05:21;13.40;99.90
23137;DHT22;11737;50.558;7.258;2023-03-14T00:07:49;13.30;99.90
23137;DHT22;11737;50.558;7.258;2023-03-14T00:10:17;13.30;99.90
23137;DHT22;11737;50.558;7.258;2023-03-14T00:12:45;13.30;99.90
23137;DHT22;11737;50.558;7.258;2023-03-14T00:15:13;13.40;99.90
23137;DHT22;11737;50.558;7.258;2023-03-14T00:17:42;13.50;99.90
23137;DHT22;11737;50.558;7.258;2023-03-14T00:20:11;13.50;99.90
23137;DHT22;11737;50.558;7.258;2023-03-14T00:22:39;13.60;99.90
23137;DHT22;11737;50.558;7.258;2023-03-14T00:25:09;13.60;99.90
23137;DHT22;11737;50.558;7.258;2023-03-14T00:27:37;13.50;99.90
23137;DHT22;11737;50.558;7.258;2023-03-14T00:30:06;13.50;99.90
23137;DHT22;11737;50.558;7.258;2023-03-14T00:32:34;13.60;99.90
23137;DHT22;11737;50.558;7.258;2023-03-14T00:35:02;13.60;99.90
23137;DHT22;11737;50.558;7.258;2023-03-14T00:37:30;13.60;99.90
23137;DHT22;11737;50.558;7.258;2023-03-14T00:39:58;13.60;99.90
23137;DHT22;11737;50.558;7.258;2023-03-14T00:42:25;13.60;99.90
23137;DHT22;11737;50.558;7.258;2023-03-14T00:44:53;13.60;99.90
23137;DHT22;11737;50.558;7.258;2023-03-14T00:47:21;13.60;99.90
23137;DHT22;11737;50.558;7.258;2023-03-14T00:49:48;13.50;99.90
23137;DHT22;11737;50.558;7.258;2023-03-14T00:52:16;13.50;99.90
23137;DHT22;11737;50.558;7.258;2023-03-14T00:54:44;13.50;99.90
23137;DHT22;11737;50.558;7.258;2023-03-14T00:57:11;13.50;99.90
23137;DHT22;11737;50.558;7.258;2023-03-14T00:59:39;13.60;99.90
23137;DHT22;11737;50.558;7.258;2023-03-14T01:02:06;13.50;99.90
23137;DHT22;11737;50.558;7.258;2023-03-14T01:04:34;13.50;99.90
23137;DHT22;11737;50.558;7.258;2023-03-14T01:07:01;13.60;99.90
23137;DHT22;11737;50.558;7.258;2023-03-14T01:09:29;13.60;99.90
23137;DHT22;11737;50.558;7.258;2023-03-14T01:11:56;13.50;99.90
23137;DHT22;11737;50.558;7.258;2023-03-14T01:14:24;13.50;99.90
23137;DHT22;11737;50.558;7.258;2023-03-14T01:16:51;13.50;99.90
23137;DHT22;11737;50.558;7.258;2023-03-14T01:19:19;13.50;99.90
23137;DHT22;11737;50.558;7.258;2023-03-14T01:21:46;13.60;99.90
23137;DHT22;11737;50.558;7.258;2023-03-14T01:24:13;13.60;99.90
23137;DHT22;11737;50.558;7.258;2023-03-14T01:26:42;13.60;99.90
23137;DHT22;11737;50.558;7.258;2023-03-14T01:29:09;13.60;99.90
23137;DHT22;11737;50.558;7.258;2023-03-14T01:31:37;13.50;99.90
23137;DHT22;11737;50.558;7.258;2023-03-14T01:34:04;13.50;99.90
23137;DHT22;11737;50.558;7.258;2023-03-14T01:36:32;13.60;99.90
23137;DHT22;11737;50.558;7.258;2023-03-14T01:38:59;13.70;99.90
23137;DHT22;11737;50.558;7.258;2023-03-14T01:41:27;13.70;99.90
23137;DHT22;11737;50.558;7.258;2023-03-14T01:43:55;13.80;99.90
23137;DHT22;11737;50.558;7.258;2023-03-14T01:51:59;13.80;99.90
23137;DHT22;11737;50.558;7.258;2023-03-14T01:57:22;13.80;99.90
23137;DHT22;11737;50.558;7.258;2023-03-14T02:02:45;13.70;99.90
23137;DHT22;11737;50.558;7.258;2023-03-14T02:05:14;13.60;99.90
23137;DHT22;11737;50.558;7.258;2023-03-14T02:07:51;13.60;99.90
23137;DHT22;11737;50.558;7.258;2023-03-14T02:10:22;13.50;99.90
23137;DHT22;11737;50.558;7.258;2023-03-14T02:12:49;13.40;99.90
23137;DHT22;11737;50.558;7.258;2023-03-14T02:15:18;13.50;99.90
23137;DHT22;11737;50.558;7.258;2023-03-14T02:17:45;13.50;99.90
23137;DHT22;11737;50.558;7.258;2023-03-14T02:20:27;13.50;99.90
23137;DHT22;11737;50.558;7.258;2023-03-14T02:22:53;13.50;99.90
23137;DHT22;11737;50.558;7.258;2023-03-14T02:25:43;13.50;99.90
23137;DHT22;11737;50.558;7.258;2023-03-14T02:28:10;13.50;99.90
23137;DHT22;11737;50.558;7.258;2023-03-14T02:30:39;13.50;99.90
23137;DHT22;11737;50.558;7.258;2023-03-14T02:33:08;13.50;99.90
23137;DHT22;11737;50.558;7.258;2023-03-14T02:35:50;13.60;99.90
23137;DHT22;11737;50.558;7.258;2023-03-14T02:38:53;13.60;99.90
23137;DHT22;11737;50.558;7.258;2023-03-14T02:41:20;13.40;99.90
23137;DHT22;11737;50.558;7.258;2023-03-14T02:43:47;13.40;99.90
23137;DHT22;11737;50.558;7.258;2023-03-14T02:46:17;13.40;99.90
23137;DHT22;11737;50.558;7.258;2023-03-14T02:48:53;13.30;99.90
23137;DHT22;11737;50.558;7.258;2023-03-14T02:51:42;13.20;99.90
23137;DHT22;11737;50.558;7.258;2023-03-14T02:54:11;13.00;99.90
23137;DHT22;11737;50.558;7.258;2023-03-14T02:56:38;12.80;99.90
23137;DHT22;11737;50.558;7.258;2023-03-14T02:59:06;12.80;99.90
23137;DHT22;11737;50.558;7.258;2023-03-14T03:01:34;12.70;99.90
23137;DHT22;11737;50.558;7.258;2023-03-14T03:04:01;12.70;99.90
23137;DHT22;11737;50.558;7.258;2023-03-14T03:06:29;12.70;99.90
23137;DHT22;11737;50.558;7.258;2023-03-14T03:08:57;12.60;99.90
23137;DHT22;11737;50.558;7.258;2023-03-14T03:11:24;12.70;99.90
23137;DHT22;11737;50.558;7.258;2023-03-14T03:13:52;12.70;99.90
23137;DHT22;11737;50.558;7.258;2023-03-14T03:16:19;12.80;99.90
23137;DHT22;11737;50.558;7.258;2023-03-14T03:18:47;12.80;99.90
23137;DHT22;11737;50.558;7.258;2023-03-14T03:21:14;12.90;99.90
23137;DHT22;11737;50.558;7.258;2023-03-14T03:23:42;12.80;99.90
23137;DHT22;11737;50.558;7.258;2023-03-14T03:26:10;12.90;99.90
23137;DHT22;11737;50.558;7.258;2023-03-14T03:28:38;12.80;99.90
23137;DHT22;11737;50.558;7.258;2023-03-14T03:31:11;12.90;99.90
23137;DHT22;11737;50.558;7.258;2023-03-14T03:33:39;12.90;99.90
23137;DHT22;11737;50.558;7.258;2023-03-14T03:36:08;13.00;99.90
23137;DHT22;11737;50.558;7.258;2023-03-14T03:38:36;13.10;99.90
23137;DHT22;11737;50.558;7.258;2023-03-14T03:41:05;13.10;99.90
23137;DHT22;11737;50.558;7.258;2023-03-14T03:43:33;13.10;99.90
23137;DHT22;11737;50.558;7.258;2023-03-14T03:46:05;13.10;99.90
23137;DHT22;11737;50.558;7.258;2023-03-14T03:48:33;13.20;99.90
23137;DHT22;11737;50.558;7.258;2023-03-14T03:51:01;13.30;99.90
23137;DHT22;11737;50.558;7.258;2023-03-14T03:53:28;13.30;99.90
23137;DHT22;11737;50.558;7.258;2023-03-14T03:55:56;13.30;99.90
23137;DHT22;11737;50.558;7.258;2023-03-14T03:58:23;13.30;99.90
23137;DHT22;11737;50.558;7.258;2023-03-14T04:00:51;13.30;99.90
23137;DHT22;11737;50.558;7.258;2023-03-14T04:03:18;13.40;99.90
23137;DHT22;11737;50.558;7.258;2023-03-14T04:05:46;13.40;99.90
23137;DHT22;11737;50.558;7.258;2023-03-14T04:08:13;13.30;99.90
23137;DHT22;11737;50.558;7.258;2023-03-14T04:10:41;13.40;99.90
23137;DHT22;11737;50.558;7.258;2023-03-14T04:13:08;13.30;99.90
23137;DHT22;11737;50.558;7.258;2023-03-14T04:15:36;13.30;99.90
23137;DHT22;11737;50.558;7.258;2023-03-14T04:18:03;13.30;99.90
23137;DHT22;11737;50.558;7.258;2023-03-14T04:20:33;13.30;99.90
23137;DHT22;11737;50.558;7.258;2023-03-14T04:23:00;13.30;99.90
23137;DHT22;11737;50.558;7.258;2023-03-14T04:25:27;13.30;99.90
23137;DHT22;11737;50.558;7.258;2023-03-14T04:27:54;13.40;99.90
23137;DHT22;11737;50.558;7.258;2023-03-14T04:30:22;13.40;99.90
23137;DHT22;11737;50.558;7.258;2023-03-14T04:32:50;13.40;99.90
23137;DHT22;11737;50.558;7.258;2023-03-14T04:35:17;13.40;99.90
23137;DHT22;11737;50.558;7.258;2023-03-14T04:37:45;13.40;99.90
23137;DHT22;11737;50.558;7.258;2023-03-14T04:40:14;13.40;99.90
23137;DHT22;11737;50.558;7.258;2023-03-14T04:42:42;13.40;99.90
23137;DHT22;11737;50.558;7.258;2023-03-14T04:45:10;13.50;99.90
23137;DHT22;11737;50.558;7.258;2023-03-14T04:47:37;13.30;99.90
23137;DHT22;11737;50.558;7.258;2023-03-14T04:50:05;13.40;99.90
23137;DHT22;11737;50.558;7.258;2023-03-14T04:52:33;13.40;99.90
23137;DHT22;11737;50.558;7.258;2023-03-14T04:55:00;13.40;99.90
23137;DHT22;11737;50.558;7.258;2023-03-14T04:57:28;13.30;99.90
23137;DHT22;11737;50.558;7.258;2023-03-14T04:59:55;13.30;99.90
23137;DHT22;11737;50.558;7.258;2023-03-14T05:02:23;13.40;99.90
23137;DHT22;11737;50.558;7.258;2023-03-14T05:04:50;13.30;99.90
23137;DHT22;11737;50.558;7.258;2023-03-14T05:07:18;13.40;99.90
23137;DHT22;11737;50.558;7.258;2023-03-14T05:09:45;13.40;99.90
23137;DHT22;11737;50.558;7.258;2023-03-14T05:12:13;13.40;99.90
23137;DHT22;11737;50.558;7.258;2023-03-14T05:14:40;13.40;99.90
23137;DHT22;11737;50.558;7.258;2023-03-14T05:17:07;13.30;99.90
23137;DHT22;11737;50.558;7.258;2023-03-14T05:19:36;13.20;99.90
23137;DHT22;11737;50.558;7.258;2023-03-14T05:22:03;13.20;99.90
23137;DHT22;11737;50.558;7.258;2023-03-14T05:24:31;13.10;99.90
23137;DHT22;11737;50.558;7.258;2023-03-14T05:26:58;13.10;99.90
23137;DHT22;11737;50.558;7.258;2023-03-14T05:29:26;13.00;99.90
23137;DHT22;11737;50.558;7.258;2023-03-14T05:31:53;12.90;99.90
23137;DHT22;11737;50.558;7.258;2023-03-14T05:34:21;12.70;99.90
23137;DHT22;11737;50.558;7.258;2023-03-14T05:36:48;12.70;99.90
23137;DHT22;11737;50.558;7.258;2023-03-14T05:39:16;12.60;99.90
23137;DHT22;11737;50.558;7.258;2023-03-14T05:41:43;12.50;99.90
23137;DHT22;11737;50.558;7.258;2023-03-14T05:44:11;12.50;99.90
23137;DHT22;11737;50.558;7.258;2023-03-14T05:46:38;12.40;99.90
23137;DHT22;11737;50.558;7.258;2023-03-14T05:49:25;12.40;99.90
23137;DHT22;11737;50.558;7.258;2023-03-14T05:51:52;12.30;99.90
23137;DHT22;11737;50.558;7.258;2023-03-14T05:54:20;12.30;99.90
23137;DHT22;11737;50.558;7.258;2023-03-14T05:56:47;12.20;99.90
23137;DHT22;11737;50.558;7.258;2023-03-14T05:59:15;12.20;99.90
23137;DHT22;11737;50.558;7.258;2023-03-14T06:01:42;12.20;99.90
23137;DHT22;11737;50.558;7.258;2023-03-14T06:04:10;12.20;99.90
23137;DHT22;11737;50.558;7.258;2023-03-14T06:06:37;12.30;99.90
23137;DHT22;11737;50.558;7.258;2023-03-14T06:09:05;12.30;99.90
23137;DHT22;11737;50.558;7.258;2023-03-14T06:11:32;12.30;99.90
23137;DHT22;11737;50.558;7.258;2023-03-14T06:14:00;12.30;99.90
23137;DHT22;11737;50.558;7.258;2023-03-14T06:16:27;12.40;99.90
23137;DHT22;11737;50.558;7.258;2023-03-14T06:18:55;12.40;99.90
23137;DHT22;11737;50.558;7.258;2023-03-14T06:21:22;12.30;99.90
23137;DHT22;11737;50.558;7.258;2023-03-14T06:23:50;12.20;99.90
23137;DHT22;11737;50.558;7.258;2023-03-14T06:26:17;12.20;99.90
23137;DHT22;11737;50.558;7.258;2023-03-14T06:28:45;12.20;99.90
23137;DHT22;11737;50.558;7.258;2023-03-14T06:31:12;12.20;99.90
23137;DHT22;11737;50.558;7.258;2023-03-14T06:33:40;12.10;99.90
23137;DHT22;11737;50.558;7.258;2023-03-14T06:36:08;12.10;99.90
23137;DHT22;11737;50.558;7.258;2023-03-14T06:38:35;11.90;99.90
23137;DHT22;11737;50.558;7.258;2023-03-14T06:41:07;11.90;99.90
23137;DHT22;11737;50.558;7.258;2023-03-14T06:43:35;11.80;99.90
23137;DHT22;11737;50.558;7.258;2023-03-14T06:46:02;11.80;99.90
23137;DHT22;11737;50.558;7.258;2023-03-14T06:48:29;11.70;99.90
23137;DHT22;11737;50.558;7.258;2023-03-14T06:50:57;11.60;99.90
23137;DHT22;11737;50.558;7.258;2023-03-14T06:53:24;11.50;99.90
23137;DHT22;11737;50.558;7.258;2023-03-14T06:55:52;11.50;99.90
23137;DHT22;11737;50.558;7.258;2023-03-14T06:58:20;11.60;99.90
23137;DHT22;11737;50.558;7.258;2023-03-14T07:00:48;11.80;99.90
23137;DHT22;11737;50.558;7.258;2023-03-14T07:03:15;11.90;99.90
23137;DHT22;11737;50.558;7.258;2023-03-14T07:05:43;12.10;99.90
23137;DHT22;11737;50.558;7.258;2023-03-14T07:08:10;12.20;99.90
23137;DHT22;11737;50.558;7.258;2023-03-14T07:10:38;12.30;99.90
23137;DHT22;11737;50.558;7.258;2023-03-14T07:13:05;12.40;99.90
23137;DHT22;11737;50.558;7.258;2023-03-14T07:15:33;12.50;99.90
23137;DHT22;11737;50.558;7.258;2023-03-14T07:18:00;12.70;99.90
23137;DHT22;11737;50.558;7.258;2023-03-14T07:20:28;12.80;99.90
23137;DHT22;11737;50.558;7.258;2023-03-14T07:22:56;12.90;99.90
23137;DHT22;11737;50.558;7.258;2023-03-14T07:25:23;12.90;99.90
23137;DHT22;11737;50.558;7.258;2023-03-14T07:27:51;13.00;99.90
23137;DHT22;11737;50.558;7.258;2023-03-14T07:30:18;13.10;99.90
23137;DHT22;11737;50.558;7.258;2023-03-14T07:32:46;13.20;99.90
23137;DHT22;11737;50.558;7.258;2023-03-14T07:35:13;13.30;99.90
23137;DHT22;11737;50.558;7.258;2023-03-14T07:37:41;13.40;99.90
23137;DHT22;11737;50.558;7.258;2023-03-14T07:40:09;13.50;99.90
23137;DHT22;11737;50.558;7.258;2023-03-14T07:42:38;13.60;99.90
23137;DHT22;11737;50.558;7.258;2023-03-14T07:45:07;13.70;99.90
23137;DHT22;11737;50.558;7.258;2023-03-14T07:47:34;13.70;99.90
23137;DHT22;11737;50.558;7.258;2023-03-14T07:50:03;13.90;99.90
23137;DHT22;11737;50.558;7.258;2023-03-14T07:52:31;14.00;99.90
23137;DHT22;11737;50.558;7.258;2023-03-14T07:54:58;14.00;99.90
23137;DHT22;11737;50.558;7.258;2023-03-14T07:57:26;14.20;99.90
23137;DHT22;11737;50.558;7.258;2023-03-14T07:59:53;14.20;99.90
23137;DHT22;11737;50.558;7.258;2023-03-14T08:02:21;14.30;99.90
23137;DHT22;11737;50.558;7.258;2023-03-14T08:04:50;14.40;99.90
23137;DHT22;11737;50.558;7.258;2023-03-14T08:07:18;14.70;99.90
23137;DHT22;11737;50.558;7.258;2023-03-14T08:09:45;14.90;99.90
23137;DHT22;11737;50.558;7.258;2023-03-14T08:12:13;14.90;99.90
23137;DHT22;11737;50.558;7.258;2023-03-14T08:14:40;15.00;99.90
23137;DHT22;11737;50.558;7.258;2023-03-14T08:17:08;15.20;99.90
23137;DHT22;11737;50.558;7.258;2023-03-14T08:19:35;15.30;99.90
23137;DHT22;11737;50.558;7.258;2023-03-14T08:22:03;15.40;99.90
23137;DHT22;11737;50.558;7.258;2023-03-14T08:24:31;15.50;99.90
23137;DHT22;11737;50.558;7.258;2023-03-14T08:26:59;15.60;99.90
23137;DHT22;11737;50.558;7.258;2023-03-14T08:29:26;15.90;99.90
23137;DHT22;11737;50.558;7.258;2023-03-14T08:31:54;15.90;99.90
23137;DHT22;11737;50.558;7.258;2023-03-14T08:34:21;15.90;99.90
23137;DHT22;11737;50.558;7.258;2023-03-14T08:36:49;15.90;99.90
23137;DHT22;11737;50.558;7.258;2023-03-14T08:39:16;16.00;99.90
23137;DHT22;11737;50.558;7.258;2023-03-14T08:41:44;16.10;99.90
23137;DHT22;11737;50.558;7.258;2023-03-14T08:44:11;16.30;99.90
23137;DHT22;11737;50.558;7.258;2023-03-14T08:46:39;16.50;99.90
23137;DHT22;11737;50.558;7.258;2023-03-14T08:49:07;16.80;99.90
23137;DHT22;11737;50.558;7.258;2023-03-14T08:51:34;16.90;99.90
23137;DHT22;11737;50.558;7.258;2023-03-14T08:54:01;17.10;99.90
23137;DHT22;11737;50.558;7.258;2023-03-14T08:56:29;17.20;99.90
23137;DHT22;11737;50.558;7.258;2023-03-14T08:58:57;17.20;99.90
23137;DHT22;11737;50.558;7.258;2023-03-14T09:01:24;17.20;99.90
23137;DHT22;11737;50.558;7.258;2023-03-14T09:03:52;17.20;99.90
23137;DHT22;11737;50.558;7.258;2023-03-14T09:06:20;17.10;99.90
23137;DHT22;11737;50.558;7.258;2023-03-14T09:08:47;17.10;99.90
23137;DHT22;11737;50.558;7.258;2023-03-14T09:11:15;17.00;99.90
23137;DHT22;11737;50.558;7.258;2023-03-14T09:13:44;16.90;99.90
23137;DHT22;11737;50.558;7.258;2023-03-14T09:16:11;16.80;99.90
23137;DHT22;11737;50.558;7.258;2023-03-14T09:18:39;16.80;99.90
23137;DHT22;11737;50.558;7.258;2023-03-14T09:21:07;16.80;99.90
23137;DHT22;11737;50.558;7.258;2023-03-14T09:23:34;16.80;99.90
23137;DHT22;11737;50.558;7.258;2023-03-14T09:26:02;16.70;99.90
23137;DHT22;11737;50.558;7.258;2023-03-14T09:28:29;16.60;99.90
23137;DHT22;11737;50.558;7.258;2023-03-14T09:30:57;16.60;99.90
23137;DHT22;11737;50.558;7.258;2023-03-14T09:33:24;16.50;99.90
23137;DHT22;11737;50.558;7.258;2023-03-14T09:35:52;16.40;99.90
23137;DHT22;11737;50.558;7.258;2023-03-14T09:38:19;16.40;99.90
23137;DHT22;11737;50.558;7.258;2023-03-14T09:40:47;16.30;99.90
23137;DHT22;11737;50.558;7.258;2023-03-14T09:43:16;16.20;99.90
23137;DHT22;11737;50.558;7.258;2023-03-14T09:45:45;16.10;99.90
23137;DHT22;11737;50.558;7.258;2023-03-14T09:48:19;16.10;99.90
23137;DHT22;11737;50.558;7.258;2023-03-14T09:50:53;16.00;99.90
23137;DHT22;11737;50.558;7.258;2023-03-14T09:53:26;16.00;99.90
23137;DHT22;11737;50.558;7.258;2023-03-14T09:55:54;15.90;99.90
23137;DHT22;11737;50.558;7.258;2023-03-14T09:58:24;15.90;99.90
23137;DHT22;11737;50.558;7.258;2023-03-14T10:00:54;15.60;99.90
23137;DHT22;11737;50.558;7.258;2023-03-14T10:03:32;15.10;99.90
23137;DHT22;11737;50.558;7.258;2023-03-14T10:05:58;14.70;99.90
23137;DHT22;11737;50.558;7.258;2023-03-14T10:08:26;14.40;99.90
23137;DHT22;11737;50.558;7.258;2023-03-14T10:10:53;14.20;99.90
23137;DHT22;11737;50.558;7.258;2023-03-14T10:13:23;14.10;99.90
23137;DHT22;11737;50.558;7.258;2023-03-14T10:16:00;13.90;99.90
23137;DHT22;11737;50.558;7.258;2023-03-14T10:18:30;13.40;99.90
23137;DHT22;11737;50.558;7.258;2023-03-14T10:21:17;12.50;99.90
23137;DHT22;11737;50.558;7.258;2023-03-14T10:23:38;12.20;99.90
23137;DHT22;11737;50.558;7.258;2023-03-14T10:26:14;11.80;99.90
23137;DHT22;11737;50.558;7.258;2023-03-14T10:34:25;11.20;99.90
23137;DHT22;11737;50.558;7.258;2023-03-14T10:36:55;11.10;99.90
23137;DHT22;11737;50.558;7.258;2023-03-14T10:39:29;11.00;99.90
23137;DHT22;11737;50.558;7.258;2023-03-14T10:42:12;11.10;99.90
23137;DHT22;11737;50.558;7.258;2023-03-14T10:44:36;11.10;99.90
23137;DHT22;11737;50.558;7.258;2023-03-14T10:47:04;11.00;99.90
23137;DHT22;11737;50.558;7.258;2023-03-14T10:49:35;10.90;99.90
23137;DHT22;11737;50.558;7.258;2023-03-14T10:52:21;10.70;99.90
23137;DHT22;11737;50.558;7.258;2023-03-14T10:54:59;10.80;99.90
23137;DHT22;11737;50.558;7.258;2023-03-14T10:57:23;10.70;99.90
23137;DHT22;11737;50.558;7.258;2023-03-14T10:59:53;10.50;99.90
23137;DHT22;11737;50.558;7.258;2023-03-14T11:02:29;10.40;99.90
23137;DHT22;11737;50.558;7.258;2023-03-14T11:05:04;10.10;99.90
23137;DHT22;11737;50.558;7.258;2023-03-14T11:07:44;10.10;99.90
23137;DHT22;11737;50.558;7.258;2023-03-14T11:10:35;10.10;99.90
23137;DHT22;11737;50.558;7.258;2023-03-14T11:13:15;10.00;99.90
23137;DHT22;11737;50.558;7.258;2023-03-14T11:29:46;10.40;99.90
23137;DHT22;11737;50.558;7.258;2023-03-14T11:34:58;10.60;99.90
23137;DHT22;11737;50.558;7.258;2023-03-14T11:37:34;10.60;99.90
23137;DHT22;11737;50.558;7.258;2023-03-14T11:40:14;10.60;99.90
23137;DHT22;11737;50.558;7.258;2023-03-14T11:43:53;10.80;99.90
23137;DHT22;11737;50.558;7.258;2023-03-14T11:45:37;11.00;99.90
23137;DHT22;11737;50.558;7.258;2023-03-14T11:48:28;11.00;99.90
23137;DHT22;11737;50.558;7.258;2023-03-14T11:50:56;11.10;99.90
23137;DHT22;11737;50.558;7.258;2023-03-14T11:56:04;11.80;99.90
23137;DHT22;11737;50.558;7.258;2023-03-14T11:58:34;12.10;99.90
23137;DHT22;11737;50.558;7.258;2023-03-14T12:01:09;12.10;99.90
23137;DHT22;11737;50.558;7.258;2023-03-14T12:04:05;11.50;99.90
23137;DHT22;11737;50.558;7.258;2023-03-14T12:09:06;11.00;99.90
23137;DHT22;11737;50.558;7.258;2023-03-14T12:14:36;10.60;99.90
23137;DHT22;11737;50.558;7.258;2023-03-14T12:17:19;10.50;99.90
23137;DHT22;11737;50.558;7.258;2023-03-14T12:19:52;10.40;99.90
23137;DHT22;11737;50.558;7.258;2023-03-14T12:22:30;10.40;99.90
23137;DHT22;11737;50.558;7.258;2023-03-14T12:35:51;11.90;99.90
23137;DHT22;11737;50.558;7.258;2023-03-14T12:38:32;12.30;99.90
23137;DHT22;11737;50.558;7.258;2023-03-14T12:41:10;12.60;99.90
23137;DHT22;11737;50.558;7.258;2023-03-14T12:43:35;12.70;99.90
23137;DHT22;11737;50.558;7.258;2023-03-14T12:48:38;11.90;99.90
23137;DHT22;11737;50.558;7.258;2023-03-14T12:51:18;11.00;99.90
23137;DHT22;11737;50.558;7.258;2023-03-14T12:56:50;9.50;99.90
23137;DHT22;11737;50.558;7.258;2023-03-14T12:59:23;9.50;99.90
23137;DHT22;11737;50.558;7.258;2023-03-14T13:04:45;9.60;99.90
23137;DHT22;11737;50.558;7.258;2023-03-14T13:12:49;9.80;99.90
23137;DHT22;11737;50.558;7.258;2023-03-14T13:15:20;9.90;99.90
23137;DHT22;11737;50.558;7.258;2023-03-14T13:17:49;10.10;99.90
23137;DHT22;11737;50.558;7.258;2023-03-14T13:20:38;10.30;99.90
23137;DHT22;11737;50.558;7.258;2023-03-14T13:23:21;10.40;99.90
23137;DHT22;11737;50.558;7.258;2023-03-14T13:25:49;10.50;99.90
23137;DHT22;11737;50.558;7.258;2023-03-14T13:28:17;10.50;99.90
23137;DHT22;11737;50.558;7.258;2023-03-14T13:30:47;10.60;99.90
23137;DHT22;11737;50.558;7.258;2023-03-14T13:33:18;10.60;99.90
23137;DHT22;11737;50.558;7.258;2023-03-14T13:36:05;10.60;99.90
23137;DHT22;11737;50.558;7.258;2023-03-14T13:38:35;10.70;99.90
23137;DHT22;11737;50.558;7.258;2023-03-14T13:41:05;10.70;99.90
23137;DHT22;11737;50.558;7.258;2023-03-14T13:43:36;10.70;99.90
23137;DHT22;11737;50.558;7.258;2023-03-14T13:46:07;10.60;99.90
23137;DHT22;11737;50.558;7.258;2023-03-14T13:48:39;10.60;99.90
23137;DHT22;11737;50.558;7.258;2023-03-14T13:51:07;10.50;99.90
23137;DHT22;11737;50.558;7.258;2023-03-14T13:53:47;10.40;99.90
23137;DHT22;11737;50.558;7.258;2023-03-14T13:59:27;10.30;99.90
23137;DHT22;11737;50.558;7.258;2023-03-14T14:01:57;10.20;99.90
23137;DHT22;11737;50.558;7.258;2023-03-14T14:04:26;10.20;99.90
23137;DHT22;11737;50.558;7.258;2023-03-14T14:06:57;10.10;99.90
23137;DHT22;11737;50.558;7.258;2023-03-14T14:09:44;10.10;99.90
23137;DHT22;11737;50.558;7.258;2023-03-14T14:12:30;10.00;99.90
23137;DHT22;11737;50.558;7.258;2023-03-14T14:15:28;9.90;99.90
23137;DHT22;11737;50.558;7.258;2023-03-14T14:18:00;9.80;99.90
23137;DHT22;11737;50.558;7.258;2023-03-14T14:20:41;9.70;99.90
23137;DHT22;11737;50.558;7.258;2023-03-14T14:23:09;9.60;99.90
23137;DHT22;11737;50.558;7.258;2023-03-14T14:25:36;9.50;99.90
23137;DHT22;11737;50.558;7.258;2023-03-14T14:28:34;9.40;99.90
23137;DHT22;11737;50.558;7.258;2023-03-14T14:31:21;9.40;99.90
23137;DHT22;11737;50.558;7.258;2023-03-14T14:33:55;9.50;99.90
23137;DHT22;11737;50.558;7.258;2023-03-14T14:39:26;9.40;99.90
23137;DHT22;11737;50.558;7.258;2023-03-14T14:41:55;9.40;99.90
23137;DHT22;11737;50.558;7.258;2023-03-14T14:44:32;9.30;99.90
23137;DHT22;11737;50.558;7.258;2023-03-14T14:47:01;9.10;99.90
23137;DHT22;11737;50.558;7.258;2023-03-14T14:49:30;8.90;99.90
23137;DHT22;11737;50.558;7.258;2023-03-14T14:52:03;8.70;99.90
23137;DHT22;11737;50.558;7.258;2023-03-14T14:54:43;8.50;99.90
23137;DHT22;11737;50.558;7.258;2023-03-14T14:57:16;8.20;99.90
23137;DHT22;11737;50.558;7.258;2023-03-14T14:59:44;7.90;99.90
23137;DHT22;11737;50.558;7.258;2023-03-14T15:02:37;7.80;99.90
23137;DHT22;11737;50.558;7.258;2023-03-14T15:05:11;7.60;99.90
23137;DHT22;11737;50.558;7.258;2023-03-14T15:07:37;7.50;99.90
23137;DHT22;11737;50.558;7.258;2023-03-14T15:10:05;7.50;99.90
23137;DHT22;11737;50.558;7.258;2023-03-14T15:12:33;7.50;99.90
23137;DHT22;11737;50.558;7.258;2023-03-14T15:15:01;7.60;99.90
23137;DHT22;11737;50.558;7.258;2023-03-14T15:17:28;7.60;99.90
23137;DHT22;11737;50.558;7.258;2023-03-14T15:19:55;7.60;99.90
23137;DHT22;11737;50.558;7.258;2023-03-14T15:22:24;7.50;99.90
23137;DHT22;11737;50.558;7.258;2023-03-14T15:24:52;7.50;99.90
23137;DHT22;11737;50.558;7.258;2023-03-14T15:27:19;7.40;99.90
23137;DHT22;11737;50.558;7.258;2023-03-14T15:29:47;7.40;99.90
23137;DHT22;11737;50.558;7.258;2023-03-14T15:32:16;7.40;99.90
23137;DHT22;11737;50.558;7.258;2023-03-14T15:34:44;7.30;99.90
23137;DHT22;11737;50.558;7.258;2023-03-14T15:37:13;7.30;99.90
23137;DHT22;11737;50.558;7.258;2023-03-14T15:39:42;7.40;99.90
23137;DHT22;11737;50.558;7.258;2023-03-14T15:42:10;7.30;99.90
23137;DHT22;11737;50.558;7.258;2023-03-14T15:44:38;7.20;99.90
23137;DHT22;11737;50.558;7.258;2023-03-14T15:47:10;7.30;99.90
23137;DHT22;11737;50.558;7.258;2023-03-14T15:49:37;7.30;99.90
23137;DHT22;11737;50.558;7.258;2023-03-14T15:52:05;7.30;99.90
23137;DHT22;11737;50.558;7.258;2023-03-14T15:54:34;7.30;99.90
23137;DHT22;11737;50.558;7.258;2023-03-14T15:57:02;7.30;99.90
23137;DHT22;11737;50.558;7.258;2023-03-14T15:59:29;7.20;99.90
23137;DHT22;11737;50.558;7.258;2023-03-14T16:01:57;7.30;99.90
23137;DHT22;11737;50.558;7.258;2023-03-14T16:04:24;7.30;99.90
23137;DHT22;11737;50.558;7.258;2023-03-14T16:06:52;7.30;99.90
23137;DHT22;11737;50.558;7.258;2023-03-14T16:09:19;7.30;99.90
23137;DHT22;11737;50.558;7.258;2023-03-14T16:11:47;7.30;99.90
23137;DHT22;11737;50.558;7.258;2023-03-14T16:14:15;7.30;99.90
23137;DHT22;11737;50.558;7.258;2023-03-14T16:16:42;7.40;99.90
23137;DHT22;11737;50.558;7.258;2023-03-14T16:19:10;7.40;99.90
23137;DHT22;11737;50.558;7.258;2023-03-14T16:21:37;7.40;99.90
23137;DHT22;11737;50.558;7.258;2023-03-14T16:24:05;7.40;99.90
23137;DHT22;11737;50.558;7.258;2023-03-14T16:26:32;7.40;99.90
23137;DHT22;11737;50.558;7.258;2023-03-14T16:29:03;7.50;99.90
23137;DHT22;11737;50.558;7.258;2023-03-14T16:31:31;7.50;99.90
23137;DHT22;11737;50.558;7.258;2023-03-14T16:34:00;7.60;99.90
23137;DHT22;11737;50.558;7.258;2023-03-14T16:36:48;7.60;99.90
23137;DHT22;11737;50.558;7.258;2023-03-14T16:39:19;7.60;99.90
23137;DHT22;11737;50.558;7.258;2023-03-14T16:41:47;7.60;99.90
23137;DHT22;11737;50.558;7.258;2023-03-14T16:44:14;7.60;99.90
23137;DHT22;11737;50.558;7.258;2023-03-14T16:46:42;7.60;99.90
23137;DHT22;11737;50.558;7.258;2023-03-14T16:49:10;7.70;99.90
23137;DHT22;11737;50.558;7.258;2023-03-14T16:51:37;7.80;99.90
23137;DHT22;11737;50.558;7.258;2023-03-14T16:54:06;7.90;99.90
23137;DHT22;11737;50.558;7.258;2023-03-14T16:56:33;7.90;99.90
23137;DHT22;11737;50.558;7.258;2023-03-14T16:59:01;8.00;99.90
23137;DHT22;11737;50.558;7.258;2023-03-14T17:01:28;8.00;99.90
23137;DHT22;11737;50.558;7.258;2023-03-14T17:03:56;8.00;99.90
23137;DHT22;11737;50.558;7.258;2023-03-14T17:06:26;8.10;99.90